Time;durP1;ratioP1;P1;durP2;ratioP2;P2;SDS_P1;SDS_P2;PMS_P1;PMS_P2;Temp;Humidity;BMP_temperature;BMP_pressure;BME280_temperature;BME280_humidity;BME280_pressure;Samples;Min_cycle;Max_cycle;Signal;HPM_P1;HPM_P2
2022/07/10 00:01:57;;;;;;;4.28;0.93;;;14.30;99.90;;;;;;5093951;28;20468;-76
2022/07/10 00:04:22;;;;;;;6.65;1.20;;;14.20;99.90;;;;;;5075633;28;20115;-76
2022/07/10 00:06:48;;;;;;;2.97;1.33;;;14.10;99.90;;;;;;5093605;28;20467;-77
2022/07/10 00:09:14;;;;;;;10.15;1.65;;;14.20;99.90;;;;;;5075861;28;20048;-76
2022/07/10 00:11:41;;;;;;;3.65;1.23;;;14.10;99.90;;;;;;5093282;28;20036;-77
2022/07/10 00:14:06;;;;;;;3.65;1.10;;;14.10;99.90;;;;;;5093827;28;20044;-77
2022/07/10 00:16:32;;;;;;;4.32;1.17;;;14.10;99.90;;;;;;5075387;28;20043;-77
2022/07/10 00:18:58;;;;;;;5.10;1.02;;;14.10;99.90;;;;;;5094039;28;20577;-76
2022/07/10 00:21:24;;;;;;;10.00;1.67;;;14.10;99.90;;;;;;5075710;28;20079;-76
2022/07/10 00:23:49;;;;;;;4.00;0.95;;;14.10;99.90;;;;;;5058755;28;20475;-77
2022/07/10 00:26:15;;;;;;;4.38;1.20;;;14.10;99.90;;;;;;5075286;28;20096;-77
2022/07/10 00:28:41;;;;;;;3.83;1.40;;;14.10;99.90;;;;;;5075919;28;20043;-76
2022/07/10 00:31:06;;;;;;;8.68;1.23;;;14.00;99.90;;;;;;5075436;28;20052;-76
2022/07/10 00:33:32;;;;;;;6.50;1.17;;;14.10;99.90;;;;;;5075310;28;20040;-76
2022/07/10 00:36:01;;;;;;;6.68;1.40;;;14.00;99.90;;;;;;5058364;28;20036;-76
2022/07/10 00:38:26;;;;;;;8.10;1.63;;;14.00;99.90;;;;;;5058168;28;20051;-76
2022/07/10 00:40:53;;;;;;;3.97;0.88;;;14.00;99.90;;;;;;5075167;28;20048;-76
2022/07/10 00:43:19;;;;;;;6.75;1.10;;;13.90;99.90;;;;;;5093285;28;20051;-76
2022/07/10 00:45:44;;;;;;;6.93;1.33;;;13.90;99.90;;;;;;5092880;28;20040;-76
2022/07/10 00:48:10;;;;;;;6.45;1.20;;;13.80;99.90;;;;;;5092832;28;20059;-76
2022/07/10 00:50:36;;;;;;;3.10;1.10;;;13.80;99.90;;;;;;5058025;28;20079;-76
2022/07/10 00:53:04;;;;;;;6.50;1.20;;;13.70;99.90;;;;;;5074624;28;20529;-76
2022/07/10 00:55:32;;;;;;;6.32;1.17;;;13.70;99.90;;;;;;5057823;28;20040;-76
2022/07/10 00:57:59;;;;;;;10.95;1.30;;;13.70;99.90;;;;;;5074911;28;20039;-76
2022/07/10 01:00:26;;;;;;;7.38;1.20;;;13.70;99.90;;;;;;5092483;28;20059;-76
2022/07/10 01:02:52;;;;;;;6.72;1.50;;;13.70;99.90;;;;;;5074782;28;20052;-76
2022/07/10 01:05:18;;;;;;;7.65;1.17;;;13.80;99.90;;;;;;5074707;28;20087;-76
2022/07/10 01:07:43;;;;;;;6.47;0.85;;;13.80;99.90;;;;;;5092248;28;20067;-76
2022/07/10 01:10:10;;;;;;;7.55;1.25;;;13.80;99.90;;;;;;5092162;28;20801;-76
2022/07/10 01:12:36;;;;;;;5.43;1.15;;;13.90;99.90;;;;;;5057730;28;20081;-76
2022/07/10 01:15:02;;;;;;;7.88;1.50;;;13.70;99.90;;;;;;5074362;28;20032;-76
2022/07/10 01:17:29;;;;;;;6.82;1.30;;;13.70;99.90;;;;;;5074423;28;20441;-76
2022/07/10 01:19:55;;;;;;;6.72;1.80;;;13.60;99.90;;;;;;5074108;28;20052;-76
2022/07/10 01:22:21;;;;;;;2.65;1.00;;;13.60;99.90;;;;;;5092061;28;20097;-76
2022/07/10 01:24:47;;;;;;;5.07;1.40;;;13.60;99.90;;;;;;5057361;28;20115;-76
2022/07/10 01:27:12;;;;;;;6.28;1.23;;;13.50;99.90;;;;;;5091621;28;20428;-76
2022/07/10 01:29:39;;;;;;;9.15;1.58;;;13.40;99.90;;;;;;5091714;28;20044;-76
2022/07/10 01:32:05;;;;;;;5.53;0.90;;;13.50;99.90;;;;;;5074265;28;20048;-76
2022/07/10 01:34:30;;;;;;;8.15;1.20;;;13.30;99.90;;;;;;5073844;28;20450;-76
2022/07/10 01:36:56;;;;;;;8.80;1.48;;;13.30;99.90;;;;;;5056968;28;20035;-76
2022/07/10 01:39:22;;;;;;;7.82;1.73;;;13.20;99.90;;;;;;5091949;28;20149;-76
2022/07/10 01:41:47;;;;;;;3.58;0.70;;;13.20;99.90;;;;;;5073800;28;20437;-77
2022/07/10 01:44:13;;;;;;;6.30;1.30;;;13.10;99.90;;;;;;5073753;28;20081;-77
2022/07/10 01:46:48;;;;;;;7.68;1.33;;;13.10;99.90;;;;;;5091818;28;20040;-77
2022/07/10 01:49:14;;;;;;;8.25;1.70;;;13.10;99.90;;;;;;5073562;28;20028;-77
2022/07/10 01:51:40;;;;;;;4.28;1.25;;;12.90;99.90;;;;;;5073670;28;20127;-77
2022/07/10 01:54:06;;;;;;;7.97;1.50;;;12.90;99.90;;;;;;5073730;28;20036;-77
2022/07/10 01:56:32;;;;;;;6.50;2.05;;;12.90;99.90;;;;;;5073596;28;20078;-77
2022/07/10 01:59:00;;;;;;;9.75;1.15;;;12.90;99.90;;;;;;5073298;28;20044;-77
2022/07/10 02:01:25;;;;;;;3.85;0.98;;;12.90;99.90;;;;;;5091552;28;20044;-77
2022/07/10 02:06:35;;;;;;;8.25;1.27;;;13.00;99.90;;;;;;5091350;28;20059;-77
2022/07/10 02:09:00;;;;;;;7.55;1.27;;;12.90;99.90;;;;;;5091461;28;20040;-77
2022/07/10 02:11:26;;;;;;;7.53;2.03;;;12.80;99.90;;;;;;5091052;28;20039;-77
2022/07/10 02:13:52;;;;;;;6.90;1.50;;;12.90;99.90;;;;;;5073576;28;20048;-77
2022/07/10 02:16:17;;;;;;;5.40;1.02;;;12.80;99.90;;;;;;5073309;28;20047;-77
2022/07/10 02:18:43;;;;;;;7.18;1.33;;;12.80;99.90;;;;;;5073327;28;20044;-77
2022/07/10 02:21:09;;;;;;;5.00;1.20;;;12.80;99.90;;;;;;5091134;28;20113;-77
2022/07/10 02:23:35;;;;;;;6.00;1.38;;;12.80;99.90;;;;;;5073340;28;20125;-77
2022/07/10 02:26:01;;;;;;;7.78;1.45;;;12.70;99.90;;;;;;5091154;28;20399;-77
2022/07/10 02:28:27;;;;;;;7.43;1.23;;;12.60;99.90;;;;;;5056341;28;20036;-77
2022/07/10 02:30:53;;;;;;;3.90;1.10;;;12.50;99.90;;;;;;5056135;28;20058;-77
2022/07/10 02:33:19;;;;;;;3.83;1.08;;;12.60;99.90;;;;;;5056749;28;20761;-76
2022/07/10 02:35:45;;;;;;;2.33;0.73;;;12.50;99.90;;;;;;5057027;28;20035;-76
2022/07/10 02:38:10;;;;;;;6.13;0.95;;;12.50;99.90;;;;;;5106004;28;20023;-78
2022/07/10 02:40:36;;;;;;;7.88;1.13;;;12.50;99.90;;;;;;5097951;28;20063;-76
2022/07/10 02:43:01;;;;;;;3.83;1.63;;;12.50;99.90;;;;;;5063768;28;20040;-76
2022/07/10 02:45:27;;;;;;;3.05;0.88;;;12.40;99.90;;;;;;5060921;28;20039;-76
2022/07/10 02:47:53;;;;;;;5.47;1.00;;;12.50;99.90;;;;;;5077135;28;20143;-76
2022/07/10 02:50:18;;;;;;;5.75;1.38;;;12.60;99.90;;;;;;5095383;28;20059;-76
2022/07/10 02:52:44;;;;;;;6.20;1.10;;;12.60;99.90;;;;;;5060533;28;20064;-76
2022/07/10 02:55:09;;;;;;;7.20;1.40;;;12.70;99.90;;;;;;5060791;28;20042;-77
2022/07/10 02:57:35;;;;;;;7.07;1.23;;;12.60;99.90;;;;;;5060437;28;20040;-76
2022/07/10 03:00:01;;;;;;;8.30;1.08;;;12.70;99.90;;;;;;5094759;28;20036;-76
2022/07/10 03:02:26;;;;;;;7.70;1.13;;;12.70;99.90;;;;;;5094829;28;20100;-76
2022/07/10 03:04:52;;;;;;;4.40;1.15;;;12.60;99.90;;;;;;5076952;28;20085;-76
2022/07/10 03:07:17;;;;;;;5.70;1.30;;;12.60;99.90;;;;;;5076528;28;20059;-76
2022/07/10 03:09:43;;;;;;;4.55;1.10;;;12.60;99.90;;;;;;5094562;28;20119;-77
2022/07/10 03:12:09;;;;;;;7.43;1.02;;;12.50;99.90;;;;;;5076659;28;20101;-77
2022/07/10 03:14:34;;;;;;;4.18;1.10;;;12.50;99.90;;;;;;5094680;28;20035;-77
2022/07/10 03:17:00;;;;;;;8.60;1.48;;;12.50;99.90;;;;;;5076428;28;20068;-77
2022/07/10 03:19:26;;;;;;;7.15;2.10;;;12.50;99.90;;;;;;5076614;28;20040;-76
2022/07/10 03:21:51;;;;;;;8.48;1.13;;;12.40;99.90;;;;;;5076500;28;20044;-76
2022/07/10 03:24:17;;;;;;;7.82;1.25;;;12.30;99.90;;;;;;5076716;28;20173;-76
2022/07/10 03:26:44;;;;;;;8.77;1.60;;;12.30;99.90;;;;;;5059805;28;20036;-76
2022/07/10 03:29:10;;;;;;;5.25;1.10;;;12.30;99.90;;;;;;5094275;28;20044;-76
2022/07/10 03:31:36;;;;;;;10.55;1.25;;;12.40;99.90;;;;;;5094137;28;20062;-77
2022/07/10 03:34:01;;;;;;;5.90;1.17;;;12.40;99.90;;;;;;5076194;28;20043;-77
2022/07/10 03:36:27;;;;;;;7.88;1.35;;;12.50;99.90;;;;;;5094306;28;20050;-77
2022/07/10 03:38:53;;;;;;;5.65;1.15;;;12.50;99.90;;;;;;5076526;28;20040;-77
2022/07/10 03:41:19;;;;;;;8.77;1.50;;;12.50;99.90;;;;;;5094099;28;20063;-77
2022/07/10 03:43:44;;;;;;;3.45;0.90;;;12.60;99.90;;;;;;5094071;28;20071;-77
2022/07/10 03:46:10;;;;;;;6.88;1.15;;;12.60;99.90;;;;;;5094101;28;20043;-77
2022/07/10 03:48:36;;;;;;;7.57;1.30;;;12.70;99.90;;;;;;5075694;28;20487;-77
2022/07/10 03:51:02;;;;;;;7.55;1.73;;;12.70;99.90;;;;;;5093460;28;20122;-77
2022/07/10 03:53:27;;;;;;;11.07;1.40;;;12.80;99.90;;;;;;5075792;28;20044;-76
2022/07/10 03:55:54;;;;;;;6.13;1.63;;;12.80;99.90;;;;;;5075792;28;20054;-76
2022/07/10 03:58:20;;;;;;;3.63;1.20;;;12.80;99.90;;;;;;5075522;28;20155;-76
2022/07/10 04:00:46;;;;;;;12.50;1.48;;;12.90;99.90;;;;;;5075607;28;20044;-76
2022/07/10 04:03:13;;;;;;;8.35;1.40;;;13.00;99.90;;;;;;5075607;28;20036;-76
2022/07/10 04:05:39;;;;;;;2.70;0.95;;;13.10;99.90;;;;;;5059024;28;20040;-76
2022/07/10 04:08:05;;;;;;;4.63;1.05;;;13.00;99.90;;;;;;5093631;28;20040;-76
2022/07/10 04:10:32;;;;;;;7.22;1.27;;;13.10;99.90;;;;;;5058762;28;20163;-77
2022/07/10 04:12:58;;;;;;;5.35;0.90;;;13.10;99.90;;;;;;5093469;28;20494;-77
2022/07/10 04:15:24;;;;;;;6.13;1.40;;;13.10;99.90;;;;;;5075687;28;20032;-77
2022/07/10 04:17:50;;;;;;;7.03;1.23;;;13.20;99.90;;;;;;5093564;28;20046;-77
2022/07/10 04:20:17;;;;;;;4.25;1.10;;;13.10;99.90;;;;;;5075417;28;20036;-77
2022/07/10 04:22:43;;;;;;;5.70;1.35;;;13.20;99.90;;;;;;5093342;28;20491;-77
2022/07/10 04:25:09;;;;;;;7.90;1.50;;;13.30;99.90;;;;;;5093434;28;20490;-77
2022/07/10 04:27:35;;;;;;;5.15;0.77;;;13.30;99.90;;;;;;5093240;28;20122;-77
2022/07/10 04:30:02;;;;;;;3.60;1.10;;;13.40;99.90;;;;;;5075337;28;20077;-77
2022/07/10 04:32:28;;;;;;;4.00;0.80;;;13.40;99.90;;;;;;5075330;28;20134;-77
2022/07/10 04:34:54;;;;;;;8.80;1.73;;;13.40;99.90;;;;;;5058441;28;20122;-77
2022/07/10 04:37:20;;;;;;;9.55;1.70;;;13.60;99.90;;;;;;5075175;28;20055;-77
2022/07/10 04:39:46;;;;;;;4.78;1.25;;;13.60;99.90;;;;;;5093272;28;20036;-77
2022/07/10 04:42:11;;;;;;;5.63;0.88;;;13.60;99.90;;;;;;5075497;28;20431;-77
2022/07/10 04:44:38;;;;;;;10.15;1.02;;;13.70;99.90;;;;;;5075491;28;20072;-76
2022/07/10 04:47:05;;;;;;;4.75;1.02;;;13.90;99.90;;;;;;5093293;28;20040;-77
2022/07/10 04:49:31;;;;;;;3.78;0.82;;;13.90;99.90;;;;;;5058195;28;20040;-77
2022/07/10 04:51:56;;;;;;;7.82;0.90;;;14.00;99.90;;;;;;5093337;28;20397;-77
2022/07/10 04:54:22;;;;;;;8.38;1.13;;;14.00;99.90;;;;;;5075204;28;20036;-77
2022/07/10 04:56:48;;;;;;;4.70;1.00;;;14.10;99.90;;;;;;5058245;28;20043;-76
2022/07/10 04:59:14;;;;;;;2.42;0.88;;;14.10;99.90;;;;;;5058390;28;20728;-77
2022/07/10 05:01:40;;;;;;;5.18;0.80;;;14.20;99.90;;;;;;5073685;28;20418;-77
2022/07/10 05:04:05;;;;;;;7.45;1.02;;;14.10;99.90;;;;;;5074759;28;20063;-77
2022/07/10 05:06:31;;;;;;;9.35;1.45;;;14.20;99.90;;;;;;5058112;28;20075;-77
2022/07/10 05:08:57;;;;;;;4.90;1.98;;;14.30;99.90;;;;;;5092705;28;20410;-77
2022/07/10 05:11:22;;;;;;;10.38;1.55;;;14.30;99.90;;;;;;5092694;28;20055;-77
2022/07/10 05:13:49;;;;;;;6.50;1.20;;;14.40;99.90;;;;;;5074626;28;20032;-77
2022/07/10 05:16:15;;;;;;;5.53;1.15;;;14.50;99.90;;;;;;5092455;28;20063;-77
2022/07/10 05:18:41;;;;;;;7.82;2.08;;;14.50;99.90;;;;;;5092514;28;20036;-76
2022/07/10 05:21:08;;;;;;;8.07;1.40;;;14.60;99.90;;;;;;5092052;28;20044;-77
2022/07/10 05:23:34;;;;;;;8.00;1.50;;;14.70;99.90;;;;;;5092220;28;20051;-77
2022/07/10 05:26:00;;;;;;;8.52;1.23;;;14.60;99.90;;;;;;5074328;28;20497;-76
2022/07/10 05:28:26;;;;;;;6.68;1.40;;;14.70;99.90;;;;;;5073952;28;20036;-77
2022/07/10 05:30:51;;;;;;;5.10;1.83;;;14.80;99.90;;;;;;5092094;28;20109;-76
2022/07/10 05:33:17;;;;;;;7.85;1.60;;;14.90;99.90;;;;;;5092266;28;20077;-76
2022/07/10 05:35:43;;;;;;;4.63;1.20;;;15.00;99.90;;;;;;5074060;28;20031;-77
2022/07/10 05:38:09;;;;;;;7.50;1.20;;;15.10;99.90;;;;;;5091954;28;20044;-77
2022/07/10 05:40:35;;;;;;;5.00;1.00;;;15.20;99.90;;;;;;5073489;28;20070;-77
2022/07/10 05:43:01;;;;;;;5.25;1.27;;;15.20;99.90;;;;;;5073682;28;20040;-77
2022/07/10 05:45:26;;;;;;;3.72;1.50;;;15.20;99.90;;;;;;5073879;28;20047;-76
2022/07/10 05:47:52;;;;;;;6.78;2.17;;;15.20;99.90;;;;;;5057271;28;20047;-76
2022/07/10 05:50:18;;;;;;;7.13;1.67;;;15.20;99.90;;;;;;5091610;28;20043;-77
2022/07/10 05:52:45;;;;;;;5.50;1.65;;;15.10;99.90;;;;;;5073934;28;20608;-76
2022/07/10 05:55:11;;;;;;;8.35;1.83;;;15.10;99.90;;;;;;5062675;28;20071;-76
2022/07/10 05:57:37;;;;;;;10.48;1.73;;;15.10;99.90;;;;;;5069451;28;20054;-75
2022/07/10 06:00:05;;;;;;;10.55;2.20;;;15.20;99.90;;;;;;5081027;28;20048;-77
2022/07/10 06:02:30;;;;;;;12.55;2.20;;;15.20;99.90;;;;;;5091914;28;20036;-78
2022/07/10 06:04:56;;;;;;;6.22;1.48;;;15.20;99.90;;;;;;5073711;28;20522;-78
2022/07/10 06:07:22;;;;;;;6.80;2.03;;;15.20;99.90;;;;;;5091538;28;20036;-77
2022/07/10 06:09:47;;;;;;;6.10;1.52;;;15.30;99.90;;;;;;5073251;28;20119;-78
2022/07/10 06:12:15;;;;;;;7.18;1.45;;;15.30;99.90;;;;;;5091482;28;20036;-77
2022/07/10 06:14:41;;;;;;;9.43;1.90;;;15.20;99.90;;;;;;5073728;28;20487;-77
2022/07/10 06:17:06;;;;;;;4.30;1.25;;;15.30;99.90;;;;;;5091765;28;20521;-77
2022/07/10 06:19:32;;;;;;;8.10;1.38;;;15.40;99.90;;;;;;5073290;28;20040;-77
2022/07/10 06:24:42;;;;;;;4.90;1.10;;;15.50;99.90;;;;;;5073614;28;20039;-77
2022/07/10 06:27:07;;;;;;;3.13;1.40;;;15.40;99.90;;;;;;5073144;28;20040;-78
2022/07/10 06:29:33;;;;;;;6.22;1.85;;;15.40;99.90;;;;;;5073061;28;20039;-78
2022/07/10 06:31:58;;;;;;;6.13;1.23;;;15.50;99.90;;;;;;5091471;28;20036;-78
2022/07/10 06:34:24;;;;;;;5.72;1.52;;;15.50;99.90;;;;;;5056617;28;20075;-78
2022/07/10 06:36:50;;;;;;;10.30;1.48;;;15.50;99.90;;;;;;5090868;28;20036;-78
2022/07/10 06:39:15;;;;;;;5.63;2.35;;;15.50;99.90;;;;;;5056174;28;20091;-78
2022/07/10 06:41:41;;;;;;;4.38;1.30;;;15.50;99.90;;;;;;5072799;28;20044;-78
2022/07/10 06:44:07;;;;;;;3.42;1.27;;;15.60;99.90;;;;;;5091333;28;20070;-78
2022/07/10 06:46:32;;;;;;;7.28;1.45;;;15.60;99.90;;;;;;5073177;28;20410;-78
2022/07/10 06:48:59;;;;;;;6.03;1.38;;;15.70;99.90;;;;;;5073487;28;20506;-78
2022/07/10 06:51:25;;;;;;;5.00;0.90;;;15.70;99.90;;;;;;5056624;28;20046;-78
2022/07/10 06:53:52;;;;;;;4.07;1.08;;;15.90;99.90;;;;;;5073522;28;20044;-77
2022/07/10 06:56:18;;;;;;;6.32;1.38;;;15.80;99.90;;;;;;5092070;28;20051;-77
2022/07/10 06:58:44;;;;;;;3.72;1.52;;;15.90;99.90;;;;;;5073742;28;20052;-77
2022/07/10 07:01:09;;;;;;;3.25;1.55;;;15.80;99.90;;;;;;5073119;28;20036;-77
2022/07/10 07:03:35;;;;;;;3.95;1.30;;;15.70;99.90;;;;;;5091138;28;20579;-77
2022/07/10 07:06:06;;;;;;;5.72;1.73;;;15.70;99.90;;;;;;5078648;28;20123;-80
2022/07/10 07:08:32;;;;;;;6.15;1.80;;;15.70;99.90;;;;;;5061546;28;20093;-80
2022/07/10 07:10:58;;;;;;;3.88;1.50;;;15.60;99.90;;;;;;5077679;28;20464;-80
2022/07/10 07:14:00;;;;;;;5.28;1.67;;;15.60;99.90;;;;;;5059964;28;20047;-80
2022/07/10 07:25:24;;;;;;;8.88;1.15;;;15.60;99.90;;;;;;5096931;28;20074;-82
2022/07/10 07:28:01;;;;;;;4.18;1.33;;;15.60;99.90;;;;;;5072923;28;20044;-81
2022/07/10 07:31:12;;;;;;;;;;;15.50;99.90;;;;;;5089179;28;20039;-82
2022/07/10 07:34:13;;;;;;;1.70;0.90;;;15.60;99.90;;;;;;5044601;28;19920;-82
2022/07/10 07:36:45;;;;;;;8.87;1.13;;;15.60;99.90;;;;;;5094147;28;20044;-80
2022/07/10 07:39:24;;;;;;;5.00;1.30;;;15.60;99.90;;;;;;5097699;28;20083;-79
2022/07/10 07:42:05;;;;;;;6.85;1.30;;;15.60;99.90;;;;;;5066206;28;20075;-80
2022/07/10 07:45:03;;;;;;;4.68;1.27;;;15.70;99.90;;;;;;5063730;28;20036;-79
2022/07/10 07:48:19;;;;;;;6.78;1.45;;;15.80;99.90;;;;;;5063407;28;20056;-79
2022/07/10 07:50:45;;;;;;;3.38;0.57;;;15.90;99.90;;;;;;5080446;28;20044;-80
2022/07/10 07:53:22;;;;;;;3.35;1.05;;;16.00;99.90;;;;;;5081839;28;20043;-80
2022/07/10 07:55:48;;;;;;;2.72;0.82;;;16.20;99.90;;;;;;5063374;28;20044;-79
2022/07/10 07:58:45;;;;;;;1.60;0.50;;;16.20;99.90;;;;;;5055210;28;20165;-79
2022/07/10 08:01:12;;;;;;;4.88;0.98;;;16.40;99.90;;;;;;5078175;28;20510;-79
2022/07/10 08:03:44;;;;;;;8.43;1.42;;;16.40;99.90;;;;;;5072106;28;20106;-80
2022/07/10 08:06:20;;;;;;;3.53;0.77;;;16.50;99.90;;;;;;5064172;28;20561;-80
2022/07/10 08:09:18;;;;;;;3.13;0.80;;;16.60;99.90;;;;;;5063553;28;20466;-80
2022/07/10 08:12:12;;;;;;;2.72;0.80;;;16.70;99.90;;;;;;5059008;28;20069;-81
2022/07/10 08:14:38;;;;;;;0.85;0.60;;;16.90;99.90;;;;;;5070915;28;20045;-79
2022/07/10 08:17:17;;;;;;;3.67;0.80;;;16.80;99.90;;;;;;5059529;28;20073;-81
2022/07/10 08:19:43;;;;;;;1.70;0.70;;;16.80;99.90;;;;;;5039604;28;20093;-81
2022/07/10 08:22:40;;;;;;;2.60;0.77;;;16.80;99.90;;;;;;5050509;28;20032;-81
2022/07/10 08:25:15;;;;;;;5.93;1.00;;;16.80;99.90;;;;;;5065247;28;20130;-82
2022/07/10 08:28:11;;;;;;;2.97;0.85;;;16.70;99.90;;;;;;5076261;28;20050;-81
2022/07/10 08:30:38;;;;;;;1.38;0.65;;;16.70;99.90;;;;;;5076253;28;20055;-80
2022/07/10 08:33:04;;;;;;;1.95;0.73;;;16.70;99.90;;;;;;5060760;28;20032;-79
2022/07/10 08:35:30;;;;;;;3.85;0.93;;;16.60;99.90;;;;;;5059915;28;20040;-80
2022/07/10 08:37:56;;;;;;;1.33;0.80;;;16.60;99.90;;;;;;5077466;28;20097;-80
2022/07/10 08:40:22;;;;;;;2.15;0.80;;;16.60;99.90;;;;;;5078811;28;20035;-81
2022/07/10 08:42:48;;;;;;;3.80;1.48;;;16.40;99.90;;;;;;5097327;28;20042;-74
2022/07/10 08:45:14;;;;;;;2.75;0.73;;;16.50;99.90;;;;;;5097379;28;20107;-81
2022/07/10 08:47:46;;;;;;;1.55;1.00;;;16.30;99.90;;;;;;5080091;28;20036;-80
2022/07/10 08:50:33;;;;;;;3.92;0.90;;;16.40;99.90;;;;;;5062973;28;20036;-81
2022/07/10 08:53:08;;;;;;;1.52;0.45;;;16.50;99.90;;;;;;5078298;28;20048;-79
2022/07/10 08:55:36;;;;;;;1.85;0.98;;;16.50;99.90;;;;;;5075501;28;20039;-81
2022/07/10 08:58:04;;;;;;;2.58;0.60;;;16.50;99.90;;;;;;5041887;28;20044;-74
2022/07/10 09:00:30;;;;;;;4.20;1.10;;;16.60;99.90;;;;;;5050812;28;20036;-80
2022/07/10 09:02:58;;;;;;;2.22;0.80;;;16.60;99.90;;;;;;5063688;28;20047;-81
2022/07/10 09:05:28;;;;;;;4.55;0.85;;;16.70;99.90;;;;;;5062146;28;20064;-81
2022/07/10 09:07:57;;;;;;;0.55;0.55;;;16.80;99.90;;;;;;5061231;28;20068;-79
2022/07/10 09:10:27;;;;;;;2.75;0.77;;;16.70;99.90;;;;;;5075630;28;20036;-80
2022/07/10 09:13:00;;;;;;;2.17;0.68;;;16.70;99.90;;;;;;5071913;28;20043;-80
2022/07/10 09:15:32;;;;;;;5.32;1.38;;;16.50;99.90;;;;;;5092787;28;20047;-79
2022/07/10 09:18:01;;;;;;;2.97;0.88;;;16.40;99.90;;;;;;5058287;28;20127;-79
2022/07/10 09:20:35;;;;;;;4.25;0.90;;;16.20;99.90;;;;;;5057795;28;20036;-79
2022/07/10 09:23:21;;;;;;;3.17;0.98;;;16.20;99.90;;;;;;5075510;28;20041;-77
2022/07/10 09:25:48;;;;;;;2.75;0.98;;;16.20;99.90;;;;;;5102066;28;20059;-79
2022/07/10 09:28:16;;;;;;;4.18;1.17;;;16.30;99.90;;;;;;5083666;28;20054;-79
2022/07/10 09:30:42;;;;;;;2.47;0.93;;;16.50;99.90;;;;;;5059271;28;20495;-79
2022/07/10 09:33:31;;;;;;;4.35;0.70;;;16.60;99.90;;;;;;5057478;28;20032;-79
2022/07/10 09:36:22;;;;;;;2.35;0.93;;;16.70;99.90;;;;;;5049511;28;20033;-79
2022/07/10 09:38:49;;;;;;;6.75;1.10;;;16.80;99.90;;;;;;5065199;28;20415;-79
2022/07/10 09:41:21;;;;;;;1.92;1.10;;;17.00;99.90;;;;;;5055998;28;20097;-79
2022/07/10 09:43:58;;;;;;;2.03;0.90;;;17.10;99.90;;;;;;5079317;28;20056;-79
2022/07/10 09:46:26;;;;;;;5.80;1.02;;;17.20;99.90;;;;;;5038259;28;20040;-79
2022/07/10 09:49:02;;;;;;;1.00;0.88;;;17.40;99.90;;;;;;5072142;28;20036;-79
2022/07/10 09:51:32;;;;;;;4.72;1.20;;;17.50;99.90;;;;;;5064106;28;20078;-79
2022/07/10 09:54:01;;;;;;;4.25;1.10;;;17.70;99.90;;;;;;5058060;28;20039;-79
2022/07/10 09:56:27;;;;;;;2.30;0.95;;;17.70;99.90;;;;;;5058311;28;20124;-79
2022/07/10 09:58:59;;;;;;;7.28;1.35;;;17.70;99.90;;;;;;5073181;28;20051;-79
2022/07/10 10:01:27;;;;;;;7.03;5.40;;;17.70;99.90;;;;;;5083808;28;20063;-79
2022/07/10 10:03:54;;;;;;;5.43;2.10;;;17.60;99.90;;;;;;5092833;28;20160;-79
2022/07/10 10:06:22;;;;;;;7.00;1.55;;;17.50;99.90;;;;;;5074439;28;20495;-79
2022/07/10 10:08:56;;;;;;;4.78;1.58;;;17.30;99.90;;;;;;5091462;28;20184;-78
2022/07/10 10:11:25;;;;;;;4.75;1.38;;;17.20;99.90;;;;;;5055091;28;20503;-78
2022/07/10 10:13:52;;;;;;;5.25;1.10;;;17.00;99.90;;;;;;5069883;28;20075;-79
2022/07/10 10:16:19;;;;;;;5.93;1.40;;;16.90;99.90;;;;;;5071675;28;20029;-79
2022/07/10 10:21:34;;;;;;;2.45;1.02;;;16.90;99.90;;;;;;5012754;28;20399;-78
2022/07/10 10:24:01;;;;;;;5.80;1.20;;;17.00;99.90;;;;;;5053276;28;20071;-79
2022/07/10 10:26:26;;;;;;;4.20;1.33;;;17.10;99.90;;;;;;5054325;28;20044;-79
2022/07/10 10:28:54;;;;;;;4.65;1.58;;;17.40;99.90;;;;;;5073961;28;20051;-79
2022/07/10 10:31:26;;;;;;;5.25;1.40;;;17.70;99.90;;;;;;5065661;28;20123;-78
2022/07/10 10:33:56;;;;;;;5.93;1.27;;;17.90;99.90;;;;;;5074185;28;20032;-79
2022/07/10 10:36:44;;;;;;;5.22;1.60;;;18.10;99.90;;;;;;5057510;28;20056;-79
2022/07/10 10:39:18;;;;;;;4.82;1.30;;;18.20;99.90;;;;;;5092070;28;20244;-78
2022/07/10 10:41:52;;;;;;;6.30;1.40;;;18.10;99.90;;;;;;5091802;28;20040;-79
2022/07/10 10:44:18;;;;;;;5.55;1.50;;;17.90;99.90;;;;;;5056258;28;20740;-79
2022/07/10 10:47:09;;;;;;;11.95;1.85;;;17.90;99.90;;;;;;5053586;28;20128;-79
2022/07/10 10:49:52;;;;;;;2.42;1.50;;;18.00;99.90;;;;;;5066657;28;20048;-80
2022/07/10 10:52:19;;;;;;;4.55;1.48;;;18.00;99.90;;;;;;5051785;28;20098;-78
2022/07/10 10:54:56;;;;;;;5.07;1.52;;;18.30;99.90;;;;;;5053663;28;20036;-79
2022/07/10 10:57:22;;;;;;;4.90;1.55;;;18.60;99.90;;;;;;5084171;28;20040;-79
2022/07/10 10:59:54;;;;;;;8.18;1.23;;;18.90;99.90;;;;;;5051518;28;20448;-79
2022/07/10 11:02:28;;;;;;;2.88;1.17;;;19.20;99.90;;;;;;5074583;28;20457;-80
2022/07/10 11:05:18;;;;;;;4.38;1.40;;;19.50;99.90;;;;;;5055416;28;20471;-80
2022/07/10 11:07:53;;;;;;;2.63;1.23;;;19.80;99.90;;;;;;5065948;28;20162;-73
2022/07/10 11:10:35;;;;;;;5.10;1.15;;;19.90;99.90;;;;;;5042881;28;20044;-79
2022/07/10 11:13:01;;;;;;;;;;;19.90;99.90;;;;;;5040892;28;20123;-80
2022/07/10 11:15:30;;;;;;;3.35;1.30;;;19.70;99.90;;;;;;5065421;28;19916;-79
2022/07/10 11:17:57;;;;;;;3.28;1.63;;;19.50;99.90;;;;;;5074133;28;20044;-78
2022/07/10 11:20:23;;;;;;;6.18;1.40;;;19.40;99.90;;;;;;5057027;28;20055;-79
2022/07/10 11:22:57;;;;;;;5.07;1.38;;;19.00;99.90;;;;;;5075448;28;20044;-80
2022/07/10 11:26:07;;;;;;;4.13;1.52;;;19.00;99.90;;;;;;5077035;28;20460;-80
2022/07/10 11:28:53;;;;;;;3.45;1.20;;;18.80;99.90;;;;;;5074737;28;20071;-81
2022/07/10 11:31:20;;;;;;;2.88;1.90;;;18.50;99.90;;;;;;5043262;28;20036;-80
2022/07/10 11:33:48;;;;;;;3.90;1.40;;;18.30;99.90;;;;;;5042880;28;20041;-80
2022/07/10 11:36:17;;;;;;;4.15;1.67;;;18.30;99.90;;;;;;5042867;28;20048;-77
2022/07/10 11:38:44;;;;;;;4.90;2.13;;;18.50;99.90;;;;;;5082524;28;20370;-80
2022/07/10 11:41:18;;;;;;;6.38;1.50;;;18.80;99.90;;;;;;5088422;28;20044;-80
2022/07/10 11:44:00;;;;;;;3.83;1.35;;;19.20;99.90;;;;;;5057832;28;20457;-79
2022/07/10 11:46:29;;;;;;;4.30;1.30;;;19.50;99.90;;;;;;5041631;28;20102;-80
2022/07/10 11:48:56;;;;;;;6.85;1.23;;;19.60;99.90;;;;;;5058417;28;20036;-80
2022/07/10 11:51:27;;;;;;;4.50;1.55;;;19.50;99.90;;;;;;5075703;28;20048;-79
2022/07/10 11:53:57;;;;;;;3.47;1.27;;;19.10;99.90;;;;;;5057707;28;20044;-78
2022/07/10 11:56:25;;;;;;;6.18;1.50;;;18.90;99.90;;;;;;5057102;28;20120;-78
2022/07/10 11:59:12;;;;;;;2.63;1.50;;;18.70;99.90;;;;;;5056391;28;20045;-79
2022/07/10 12:01:49;;;;;;;6.53;1.45;;;18.60;99.90;;;;;;5040568;28;20048;-79
2022/07/10 12:04:17;;;;;;;6.15;1.40;;;18.60;99.90;;;;;;5056626;28;20380;-79
2022/07/10 12:06:45;;;;;;;2.65;1.00;;;18.60;99.90;;;;;;5040470;28;20391;-80
2022/07/10 12:09:16;;;;;;;3.10;0.70;;;18.50;99.90;;;;;;5040837;28;20435;-78
2022/07/10 12:11:43;;;;;;;1.00;0.90;;;18.60;99.90;;;;;;5056802;28;20052;-79
2022/07/10 12:14:18;;;;;;;4.63;1.33;;;18.60;99.90;;;;;;5057006;28;20048;-79
2022/07/10 12:16:48;;;;;;;3.40;1.20;;;18.70;99.90;;;;;;5039409;28;20039;-81
2022/07/10 12:19:19;;;;;;;4.63;1.38;;;18.80;99.90;;;;;;5074925;28;20040;-80
2022/07/10 12:21:46;;;;;;;4.57;1.38;;;18.80;99.90;;;;;;5074331;28;20463;-79
2022/07/10 12:24:15;;;;;;;4.05;1.58;;;19.00;99.90;;;;;;5059099;28;20036;-78
2022/07/10 12:26:42;;;;;;;3.97;1.02;;;19.10;99.90;;;;;;5072129;28;20043;-81
2022/07/10 12:29:18;;;;;;;4.45;1.45;;;19.10;99.90;;;;;;5060814;28;20032;-79
2022/07/10 12:31:46;;;;;;;6.07;1.20;;;19.10;99.90;;;;;;5055414;28;20100;-80
2022/07/10 12:34:13;;;;;;;7.28;1.35;;;19.10;99.90;;;;;;5061385;28;20040;-79
2022/07/10 12:36:52;;;;;;;2.65;1.20;;;19.00;99.90;;;;;;5076520;28;20040;-81
2022/07/10 12:39:23;;;;;;;4.20;1.15;;;19.00;99.90;;;;;;5076611;28;20040;-81
2022/07/10 12:41:56;;;;;;;3.13;1.25;;;19.00;99.90;;;;;;5058377;28;20048;-80
2022/07/10 12:44:36;;;;;;;6.95;1.58;;;19.00;99.90;;;;;;5057507;28;20519;-80
2022/07/10 12:47:03;;;;;;;2.38;1.60;;;19.20;99.90;;;;;;5069332;28;20040;-79
2022/07/10 12:49:29;;;;;;;9.13;1.42;;;19.40;99.90;;;;;;5069931;28;20523;-81
2022/07/10 12:51:55;;;;;;;3.17;1.02;;;19.40;99.90;;;;;;5059335;28;20040;-80
2022/07/10 12:54:36;;;;;;;3.85;1.30;;;19.50;99.90;;;;;;5077303;28;20044;-80
2022/07/10 12:57:06;;;;;;;2.83;1.25;;;19.40;99.90;;;;;;5060413;28;20035;-80
2022/07/10 12:59:36;;;;;;;6.25;1.38;;;19.20;99.90;;;;;;5059560;28;20040;-80
2022/07/10 13:02:17;;;;;;;3.63;1.48;;;19.10;99.90;;;;;;5075854;28;20036;-81
2022/07/10 13:04:52;;;;;;;3.40;1.00;;;18.90;99.90;;;;;;5077708;28;20047;-80
2022/07/10 13:07:18;;;;;;;1.95;1.27;;;18.90;99.90;;;;;;5069411;28;20036;-79
2022/07/10 13:09:44;;;;;;;5.35;1.40;;;18.80;99.90;;;;;;5093546;28;20458;-80
2022/07/10 13:12:10;;;;;;;2.53;1.08;;;18.70;99.90;;;;;;5048970;28;20067;-81
2022/07/10 13:14:36;;;;;;;3.05;1.20;;;18.80;99.90;;;;;;5055334;28;20662;-80
2022/07/10 13:17:02;;;;;;;3.15;1.08;;;18.90;99.90;;;;;;5050762;28;20039;-80